Главная страница
METAR-TAF:

METAR-TAF

Аэропорты :

Воронеж, Россия

широта: 51-39N, долгота: 039-15E, высота над уровнем моря: 154 м

Текущие метеонаблюдения

Эта сводка был подготовлена 19 минут назад, в 10:00 UTC
Ветер 4 Узел от западный
Температура 7°C
Влажность 57%
Давление 1018 hPa
Видимость 10 км и более
Нет облачности ниже 1500 м, и нет кучево-дождевой облачности

METAR: UUOO 211000Z 28002MPS CAVOK 07/M01 Q1018 R30/090070 NOSIG RMK QFE750

Время: 13:19 (10:19 UTC)

Прогноз

Эта сводка был подготовлена 2 часа и 20 минут назад, в 07:59 UTC
Прогноз действительный с 21-го 09 UTC до 21-го 18 UTC
Ветер 6 Узел от северно-северо-западный
Видимость 10 км и более
Рассеянная облачность на высоте 2000 фута

TAF: UUOO 210759Z 2109/2118 34003MPS 9999 BKN020

Метеонаблюдения и прогнозы для более 4000 аэропортов (сводки METAR и TAF).

Имеющиеся станции представлены на карте желтыми и красными точками.

Чтобы увидеть название станции, наведите на нее мышь.

Затем щелкните, чтобы увидеть метеонаблюдения и метеопрогнозы.

Управление картой: чтобы увеличить масштаб, щелкните зеленые кнопки с черным крестиком; чтобы уменьшить масштаб, щелкните зеленую кнопку с тире; для просмотра соседних карт щелкайте зеленые стрелки.


METAR-TAF: